sensor_id;sensor_type;location;lat;lon;timestamp;P1;durP1;ratioP1;P2;durP2;ratioP2
14584;SDS011;7379;51.506;11.876;2023-03-20T00:01:52;3.42;;;3.13;;
14584;SDS011;7379;51.506;11.876;2023-03-20T00:04:19;3.40;;;2.90;;
14584;SDS011;7379;51.506;11.876;2023-03-20T00:06:47;3.20;;;2.90;;
14584;SDS011;7379;51.506;11.876;2023-03-20T00:09:13;3.88;;;3.30;;
14584;SDS011;7379;51.506;11.876;2023-03-20T00:11:43;3.08;;;2.70;;
14584;SDS011;7379;51.506;11.876;2023-03-20T00:14:13;3.17;;;2.88;;
14584;SDS011;7379;51.506;11.876;2023-03-20T00:16:44;4.15;;;3.20;;
14584;SDS011;7379;51.506;11.876;2023-03-20T00:19:13;3.20;;;2.90;;
14584;SDS011;7379;51.506;11.876;2023-03-20T00:21:42;2.80;;;2.60;;
14584;SDS011;7379;51.506;11.876;2023-03-20T00:24:10;3.45;;;3.03;;
14584;SDS011;7379;51.506;11.876;2023-03-20T00:26:37;3.22;;;2.90;;
14584;SDS011;7379;51.506;11.876;2023-03-20T00:29:04;3.10;;;2.80;;
14584;SDS011;7379;51.506;11.876;2023-03-20T00:31:33;3.92;;;3.10;;
14584;SDS011;7379;51.506;11.876;2023-03-20T00:34:03;3.35;;;2.90;;
14584;SDS011;7379;51.506;11.876;2023-03-20T00:36:32;3.30;;;3.00;;
14584;SDS011;7379;51.506;11.876;2023-03-20T00:38:59;3.17;;;2.88;;
14584;SDS011;7379;51.506;11.876;2023-03-20T00:41:27;3.60;;;2.50;;
14584;SDS011;7379;51.506;11.876;2023-03-20T00:43:56;3.38;;;2.90;;
14584;SDS011;7379;51.506;11.876;2023-03-20T00:46:26;2.88;;;2.67;;
14584;SDS011;7379;51.506;11.876;2023-03-20T00:48:54;3.13;;;2.78;;
14584;SDS011;7379;51.506;11.876;2023-03-20T00:51:22;3.20;;;2.90;;
14584;SDS011;7379;51.506;11.876;2023-03-20T00:53:49;3.60;;;2.70;;
14584;SDS011;7379;51.506;11.876;2023-03-20T00:56:30;3.35;;;2.90;;
14584;SDS011;7379;51.506;11.876;2023-03-20T00:58:59;4.63;;;2.83;;
14584;SDS011;7379;51.506;11.876;2023-03-20T01:01:27;3.67;;;2.90;;
14584;SDS011;7379;51.506;11.876;2023-03-20T01:03:54;3.30;;;2.72;;
14584;SDS011;7379;51.506;11.876;2023-03-20T01:06:22;3.50;;;2.80;;
14584;SDS011;7379;51.506;11.876;2023-03-20T01:08:49;3.65;;;2.80;;
14584;SDS011;7379;51.506;11.876;2023-03-20T01:11:17;3.05;;;2.75;;
14584;SDS011;7379;51.506;11.876;2023-03-20T01:13:47;3.55;;;2.90;;
14584;SDS011;7379;51.506;11.876;2023-03-20T01:16:16;4.20;;;2.90;;
14584;SDS011;7379;51.506;11.876;2023-03-20T01:18:46;2.92;;;2.72;;
14584;SDS011;7379;51.506;11.876;2023-03-20T01:21:14;3.88;;;2.92;;
14584;SDS011;7379;51.506;11.876;2023-03-20T01:23:42;4.57;;;3.03;;
14584;SDS011;7379;51.506;11.876;2023-03-20T01:26:18;3.20;;;2.90;;
14584;SDS011;7379;51.506;11.876;2023-03-20T01:28:49;3.08;;;2.78;;
14584;SDS011;7379;51.506;11.876;2023-03-20T01:31:16;4.00;;;2.88;;
14584;SDS011;7379;51.506;11.876;2023-03-20T01:33:43;3.30;;;3.00;;
14584;SDS011;7379;51.506;11.876;2023-03-20T01:36:11;3.15;;;2.85;;
14584;SDS011;7379;51.506;11.876;2023-03-20T01:38:40;3.40;;;3.10;;
14584;SDS011;7379;51.506;11.876;2023-03-20T01:41:11;3.35;;;3.05;;
14584;SDS011;7379;51.506;11.876;2023-03-20T01:43:40;3.33;;;2.97;;
14584;SDS011;7379;51.506;11.876;2023-03-20T01:46:14;4.40;;;2.90;;
14584;SDS011;7379;51.506;11.876;2023-03-20T01:48:56;5.70;;;3.10;;
14584;SDS011;7379;51.506;11.876;2023-03-20T01:51:32;3.63;;;2.70;;
14584;SDS011;7379;51.506;11.876;2023-03-20T01:54:02;4.20;;;3.00;;
14584;SDS011;7379;51.506;11.876;2023-03-20T01:56:33;3.10;;;2.80;;
14584;SDS011;7379;51.506;11.876;2023-03-20T01:59:07;5.18;;;3.03;;
14584;SDS011;7379;51.506;11.876;2023-03-20T02:01:37;3.88;;;3.17;;
14584;SDS011;7379;51.506;11.876;2023-03-20T02:04:05;3.35;;;3.05;;
14584;SDS011;7379;51.506;11.876;2023-03-20T02:06:33;3.83;;;3.28;;
14584;SDS011;7379;51.506;11.876;2023-03-20T02:09:03;3.33;;;3.03;;
14584;SDS011;7379;51.506;11.876;2023-03-20T02:11:30;3.20;;;2.90;;
14584;SDS011;7379;51.506;11.876;2023-03-20T02:13:58;4.45;;;2.80;;
14584;SDS011;7379;51.506;11.876;2023-03-20T02:16:26;4.32;;;3.10;;
14584;SDS011;7379;51.506;11.876;2023-03-20T02:18:54;4.13;;;3.25;;
14584;SDS011;7379;51.506;11.876;2023-03-20T02:21:36;3.80;;;3.20;;
14584;SDS011;7379;51.506;11.876;2023-03-20T02:27:22;3.28;;;2.97;;
14584;SDS011;7379;51.506;11.876;2023-03-20T02:30:02;3.17;;;2.88;;
14584;SDS011;7379;51.506;11.876;2023-03-20T02:33:00;4.20;;;3.00;;
14584;SDS011;7379;51.506;11.876;2023-03-20T02:39:07;3.28;;;2.97;;
14584;SDS011;7379;51.506;11.876;2023-03-20T02:41:46;3.50;;;3.20;;
14584;SDS011;7379;51.506;11.876;2023-03-20T02:44:20;3.25;;;2.95;;
14584;SDS011;7379;51.506;11.876;2023-03-20T02:46:53;3.50;;;3.17;;
14584;SDS011;7379;51.506;11.876;2023-03-20T02:49:30;3.40;;;3.10;;
14584;SDS011;7379;51.506;11.876;2023-03-20T02:52:12;4.38;;;3.08;;
14584;SDS011;7379;51.506;11.876;2023-03-20T02:54:47;3.40;;;3.10;;
14584;SDS011;7379;51.506;11.876;2023-03-20T02:57:22;3.45;;;3.10;;
14584;SDS011;7379;51.506;11.876;2023-03-20T02:59:57;3.72;;;3.33;;
14584;SDS011;7379;51.506;11.876;2023-03-20T03:02:30;3.97;;;3.58;;
14584;SDS011;7379;51.506;11.876;2023-03-20T03:05:02;4.78;;;3.38;;
14584;SDS011;7379;51.506;11.876;2023-03-20T03:07:33;4.03;;;3.63;;
14584;SDS011;7379;51.506;11.876;2023-03-20T03:10:04;3.80;;;3.40;;
14584;SDS011;7379;51.506;11.876;2023-03-20T03:12:34;3.50;;;3.20;;
14584;SDS011;7379;51.506;11.876;2023-03-20T03:15:07;3.97;;;3.58;;
14584;SDS011;7379;51.506;11.876;2023-03-20T03:17:42;3.80;;;3.50;;
14584;SDS011;7379;51.506;11.876;2023-03-20T03:20:14;3.58;;;3.17;;
14584;SDS011;7379;51.506;11.876;2023-03-20T03:22:47;3.63;;;3.22;;
14584;SDS011;7379;51.506;11.876;2023-03-20T03:25:16;4.00;;;3.53;;
14584;SDS011;7379;51.506;11.876;2023-03-20T03:27:43;3.63;;;3.33;;
14584;SDS011;7379;51.506;11.876;2023-03-20T03:30:14;3.92;;;3.50;;
14584;SDS011;7379;51.506;11.876;2023-03-20T03:32:45;3.85;;;3.55;;
14584;SDS011;7379;51.506;11.876;2023-03-20T03:35:15;3.72;;;3.42;;
14584;SDS011;7379;51.506;11.876;2023-03-20T03:37:46;3.88;;;3.47;;
14584;SDS011;7379;51.506;11.876;2023-03-20T03:40:24;3.70;;;3.38;;
14584;SDS011;7379;51.506;11.876;2023-03-20T03:43:00;4.60;;;3.38;;
14584;SDS011;7379;51.506;11.876;2023-03-20T03:45:31;4.65;;;3.47;;
14584;SDS011;7379;51.506;11.876;2023-03-20T03:48:02;3.72;;;3.42;;
14584;SDS011;7379;51.506;11.876;2023-03-20T03:50:33;3.97;;;3.53;;
14584;SDS011;7379;51.506;11.876;2023-03-20T03:53:07;4.03;;;3.60;;
14584;SDS011;7379;51.506;11.876;2023-03-20T03:55:40;6.25;;;3.13;;
14584;SDS011;7379;51.506;11.876;2023-03-20T03:58:12;4.00;;;3.42;;
14584;SDS011;7379;51.506;11.876;2023-03-20T04:00:44;4.45;;;3.53;;
14584;SDS011;7379;51.506;11.876;2023-03-20T04:03:14;4.35;;;3.90;;
14584;SDS011;7379;51.506;11.876;2023-03-20T04:05:43;3.85;;;3.55;;
14584;SDS011;7379;51.506;11.876;2023-03-20T04:08:11;3.53;;;3.22;;
14584;SDS011;7379;51.506;11.876;2023-03-20T04:10:41;3.75;;;3.42;;
14584;SDS011;7379;51.506;11.876;2023-03-20T04:13:08;4.30;;;3.35;;
14584;SDS011;7379;51.506;11.876;2023-03-20T04:15:35;3.38;;;3.08;;
14584;SDS011;7379;51.506;11.876;2023-03-20T04:18:03;3.85;;;3.45;;
14584;SDS011;7379;51.506;11.876;2023-03-20T04:20:30;3.90;;;3.60;;
14584;SDS011;7379;51.506;11.876;2023-03-20T04:22:56;3.90;;;3.50;;
14584;SDS011;7379;51.506;11.876;2023-03-20T04:25:24;3.67;;;3.38;;
14584;SDS011;7379;51.506;11.876;2023-03-20T04:27:52;4.25;;;3.30;;
14584;SDS011;7379;51.506;11.876;2023-03-20T04:30:19;3.92;;;3.53;;
14584;SDS011;7379;51.506;11.876;2023-03-20T04:32:46;4.30;;;3.90;;
14584;SDS011;7379;51.506;11.876;2023-03-20T04:35:13;3.97;;;3.65;;
14584;SDS011;7379;51.506;11.876;2023-03-20T04:37:40;4.20;;;3.80;;
14584;SDS011;7379;51.506;11.876;2023-03-20T04:40:07;4.10;;;3.70;;
14584;SDS011;7379;51.506;11.876;2023-03-20T04:42:35;4.40;;;3.70;;
14584;SDS011;7379;51.506;11.876;2023-03-20T04:45:04;4.28;;;3.80;;
14584;SDS011;7379;51.506;11.876;2023-03-20T04:47:31;3.83;;;3.53;;
14584;SDS011;7379;51.506;11.876;2023-03-20T04:49:58;4.07;;;3.67;;
14584;SDS011;7379;51.506;11.876;2023-03-20T04:52:25;4.20;;;3.78;;
14584;SDS011;7379;51.506;11.876;2023-03-20T04:54:52;3.88;;;3.47;;
14584;SDS011;7379;51.506;11.876;2023-03-20T04:57:18;4.13;;;3.70;;
14584;SDS011;7379;51.506;11.876;2023-03-20T04:59:45;3.92;;;3.60;;
14584;SDS011;7379;51.506;11.876;2023-03-20T05:02:13;4.32;;;3.92;;
14584;SDS011;7379;51.506;11.876;2023-03-20T05:04:41;4.45;;;4.05;;
14584;SDS011;7379;51.506;11.876;2023-03-20T05:07:08;4.88;;;3.97;;
14584;SDS011;7379;51.506;11.876;2023-03-20T05:09:35;5.13;;;3.80;;
14584;SDS011;7379;51.506;11.876;2023-03-20T05:12:02;5.35;;;3.70;;
14584;SDS011;7379;51.506;11.876;2023-03-20T05:14:29;4.57;;;3.95;;
14584;SDS011;7379;51.506;11.876;2023-03-20T05:16:56;4.15;;;3.75;;
14584;SDS011;7379;51.506;11.876;2023-03-20T05:19:24;4.20;;;3.80;;
14584;SDS011;7379;51.506;11.876;2023-03-20T05:21:51;4.95;;;4.18;;
14584;SDS011;7379;51.506;11.876;2023-03-20T05:24:18;4.88;;;4.40;;
14584;SDS011;7379;51.506;11.876;2023-03-20T05:26:45;4.90;;;4.40;;
14584;SDS011;7379;51.506;11.876;2023-03-20T05:29:12;5.55;;;5.03;;
14584;SDS011;7379;51.506;11.876;2023-03-20T05:31:39;4.93;;;4.30;;
14584;SDS011;7379;51.506;11.876;2023-03-20T05:34:06;5.95;;;4.93;;
14584;SDS011;7379;51.506;11.876;2023-03-20T05:36:34;6.47;;;5.78;;
14584;SDS011;7379;51.506;11.876;2023-03-20T05:39:01;6.50;;;5.80;;
14584;SDS011;7379;51.506;11.876;2023-03-20T05:41:28;9.23;;;7.65;;
14584;SDS011;7379;51.506;11.876;2023-03-20T05:43:55;11.18;;;8.32;;
14584;SDS011;7379;51.506;11.876;2023-03-20T05:46:22;11.80;;;9.43;;
14584;SDS011;7379;51.506;11.876;2023-03-20T05:48:50;14.52;;;11.02;;
14584;SDS011;7379;51.506;11.876;2023-03-20T05:51:17;12.52;;;10.57;;
14584;SDS011;7379;51.506;11.876;2023-03-20T05:53:45;16.33;;;13.48;;
14584;SDS011;7379;51.506;11.876;2023-03-20T05:56:11;13.93;;;11.65;;
14584;SDS011;7379;51.506;11.876;2023-03-20T05:58:38;15.52;;;12.80;;
14584;SDS011;7379;51.506;11.876;2023-03-20T06:01:06;18.48;;;14.48;;
14584;SDS011;7379;51.506;11.876;2023-03-20T06:03:33;19.83;;;14.57;;
14584;SDS011;7379;51.506;11.876;2023-03-20T06:06:00;18.98;;;14.43;;
14584;SDS011;7379;51.506;11.876;2023-03-20T06:08:27;22.17;;;16.75;;
14584;SDS011;7379;51.506;11.876;2023-03-20T06:10:56;22.42;;;16.63;;
14584;SDS011;7379;51.506;11.876;2023-03-20T06:13:23;25.48;;;18.58;;
14584;SDS011;7379;51.506;11.876;2023-03-20T06:15:50;27.83;;;20.02;;
14584;SDS011;7379;51.506;11.876;2023-03-20T06:18:17;27.42;;;19.23;;
14584;SDS011;7379;51.506;11.876;2023-03-20T06:20:43;26.52;;;18.52;;
14584;SDS011;7379;51.506;11.876;2023-03-20T06:23:10;30.73;;;21.80;;
14584;SDS011;7379;51.506;11.876;2023-03-20T06:25:37;29.05;;;20.83;;
14584;SDS011;7379;51.506;11.876;2023-03-20T06:28:05;32.25;;;22.83;;
14584;SDS011;7379;51.506;11.876;2023-03-20T06:30:32;31.35;;;22.55;;
14584;SDS011;7379;51.506;11.876;2023-03-20T06:32:59;33.50;;;23.10;;
14584;SDS011;7379;51.506;11.876;2023-03-20T06:35:26;31.45;;;22.13;;
14584;SDS011;7379;51.506;11.876;2023-03-20T06:37:55;32.28;;;22.83;;
14584;SDS011;7379;51.506;11.876;2023-03-20T06:40:22;30.73;;;22.48;;
14584;SDS011;7379;51.506;11.876;2023-03-20T06:42:49;35.28;;;24.25;;
14584;SDS011;7379;51.506;11.876;2023-03-20T06:45:17;32.65;;;23.40;;
14584;SDS011;7379;51.506;11.876;2023-03-20T06:47:44;30.45;;;22.70;;
14584;SDS011;7379;51.506;11.876;2023-03-20T06:50:12;31.50;;;21.90;;
14584;SDS011;7379;51.506;11.876;2023-03-20T06:52:39;30.25;;;22.02;;
14584;SDS011;7379;51.506;11.876;2023-03-20T06:55:07;34.92;;;24.15;;
14584;SDS011;7379;51.506;11.876;2023-03-20T06:57:34;36.22;;;24.10;;
14584;SDS011;7379;51.506;11.876;2023-03-20T07:00:01;32.60;;;22.90;;
14584;SDS011;7379;51.506;11.876;2023-03-20T07:02:30;35.60;;;23.95;;
14584;SDS011;7379;51.506;11.876;2023-03-20T07:04:57;38.67;;;24.98;;
14584;SDS011;7379;51.506;11.876;2023-03-20T07:07:24;34.25;;;23.85;;
14584;SDS011;7379;51.506;11.876;2023-03-20T07:09:51;33.00;;;24.20;;
14584;SDS011;7379;51.506;11.876;2023-03-20T07:12:17;35.95;;;24.70;;
14584;SDS011;7379;51.506;11.876;2023-03-20T07:14:44;34.58;;;23.95;;
14584;SDS011;7379;51.506;11.876;2023-03-20T07:17:11;32.88;;;24.35;;
14584;SDS011;7379;51.506;11.876;2023-03-20T07:19:40;33.70;;;24.05;;
14584;SDS011;7379;51.506;11.876;2023-03-20T07:22:07;36.13;;;24.35;;
14584;SDS011;7379;51.506;11.876;2023-03-20T07:24:40;34.67;;;24.23;;
14584;SDS011;7379;51.506;11.876;2023-03-20T07:27:06;37.53;;;26.08;;
14584;SDS011;7379;51.506;11.876;2023-03-20T07:29:33;34.47;;;23.65;;
14584;SDS011;7379;51.506;11.876;2023-03-20T07:32:01;34.90;;;24.40;;
14584;SDS011;7379;51.506;11.876;2023-03-20T07:34:27;34.95;;;24.75;;
14584;SDS011;7379;51.506;11.876;2023-03-20T07:36:56;37.25;;;25.17;;
14584;SDS011;7379;51.506;11.876;2023-03-20T07:39:22;33.45;;;24.27;;
14584;SDS011;7379;51.506;11.876;2023-03-20T07:41:49;31.48;;;23.02;;
14584;SDS011;7379;51.506;11.876;2023-03-20T07:44:16;33.10;;;23.30;;
14584;SDS011;7379;51.506;11.876;2023-03-20T07:46:43;34.42;;;23.98;;
14584;SDS011;7379;51.506;11.876;2023-03-20T07:49:11;30.65;;;22.23;;
14584;SDS011;7379;51.506;11.876;2023-03-20T07:51:38;33.67;;;23.23;;
14584;SDS011;7379;51.506;11.876;2023-03-20T07:54:06;30.58;;;22.73;;
14584;SDS011;7379;51.506;11.876;2023-03-20T07:56:33;29.42;;;22.15;;
14584;SDS011;7379;51.506;11.876;2023-03-20T07:58:59;32.83;;;22.40;;
14584;SDS011;7379;51.506;11.876;2023-03-20T08:01:26;33.05;;;23.23;;
14584;SDS011;7379;51.506;11.876;2023-03-20T08:03:53;30.15;;;22.23;;
14584;SDS011;7379;51.506;11.876;2023-03-20T08:06:20;30.35;;;22.13;;
14584;SDS011;7379;51.506;11.876;2023-03-20T08:08:47;29.60;;;22.13;;
14584;SDS011;7379;51.506;11.876;2023-03-20T08:11:17;31.42;;;22.38;;
14584;SDS011;7379;51.506;11.876;2023-03-20T08:13:45;32.65;;;23.02;;
14584;SDS011;7379;51.506;11.876;2023-03-20T08:16:11;30.15;;;22.00;;
14584;SDS011;7379;51.506;11.876;2023-03-20T08:18:38;29.38;;;21.48;;
14584;SDS011;7379;51.506;11.876;2023-03-20T08:21:06;32.35;;;22.80;;
14584;SDS011;7379;51.506;11.876;2023-03-20T08:23:33;29.98;;;21.02;;
14584;SDS011;7379;51.506;11.876;2023-03-20T08:26:00;30.10;;;22.70;;
14584;SDS011;7379;51.506;11.876;2023-03-20T08:28:29;31.13;;;22.10;;
14584;SDS011;7379;51.506;11.876;2023-03-20T08:30:55;33.40;;;22.77;;
14584;SDS011;7379;51.506;11.876;2023-03-20T08:33:22;31.52;;;22.20;;
14584;SDS011;7379;51.506;11.876;2023-03-20T08:35:53;32.58;;;22.60;;
14584;SDS011;7379;51.506;11.876;2023-03-20T08:38:21;30.25;;;22.30;;
14584;SDS011;7379;51.506;11.876;2023-03-20T08:40:48;32.15;;;22.90;;
14584;SDS011;7379;51.506;11.876;2023-03-20T08:43:15;32.83;;;22.85;;
14584;SDS011;7379;51.506;11.876;2023-03-20T08:45:43;34.42;;;23.77;;
14584;SDS011;7379;51.506;11.876;2023-03-20T08:48:10;34.25;;;24.08;;
14584;SDS011;7379;51.506;11.876;2023-03-20T08:50:37;32.10;;;23.35;;
14584;SDS011;7379;51.506;11.876;2023-03-20T08:53:04;32.90;;;22.83;;
14584;SDS011;7379;51.506;11.876;2023-03-20T08:55:31;31.27;;;22.65;;
14584;SDS011;7379;51.506;11.876;2023-03-20T08:57:58;32.42;;;23.67;;
14584;SDS011;7379;51.506;11.876;2023-03-20T09:00:25;31.27;;;22.80;;
14584;SDS011;7379;51.506;11.876;2023-03-20T09:02:54;33.13;;;23.17;;
14584;SDS011;7379;51.506;11.876;2023-03-20T09:05:20;31.77;;;22.80;;
14584;SDS011;7379;51.506;11.876;2023-03-20T09:07:47;29.73;;;22.45;;
14584;SDS011;7379;51.506;11.876;2023-03-20T09:10:15;31.63;;;22.08;;
14584;SDS011;7379;51.506;11.876;2023-03-20T09:12:42;32.10;;;22.83;;
14584;SDS011;7379;51.506;11.876;2023-03-20T09:15:10;30.88;;;21.88;;
14584;SDS011;7379;51.506;11.876;2023-03-20T09:17:37;30.23;;;22.17;;
14584;SDS011;7379;51.506;11.876;2023-03-20T09:20:05;29.65;;;22.08;;
14584;SDS011;7379;51.506;11.876;2023-03-20T09:22:33;32.58;;;22.92;;
14584;SDS011;7379;51.506;11.876;2023-03-20T09:25:00;31.73;;;23.08;;
14584;SDS011;7379;51.506;11.876;2023-03-20T09:27:27;31.70;;;22.48;;
14584;SDS011;7379;51.506;11.876;2023-03-20T09:29:54;30.67;;;22.33;;
14584;SDS011;7379;51.506;11.876;2023-03-20T09:32:20;29.80;;;21.00;;
14584;SDS011;7379;51.506;11.876;2023-03-20T09:34:47;30.20;;;20.95;;
14584;SDS011;7379;51.506;11.876;2023-03-20T09:37:15;30.02;;;21.80;;
14584;SDS011;7379;51.506;11.876;2023-03-20T09:39:42;31.35;;;21.80;;
14584;SDS011;7379;51.506;11.876;2023-03-20T09:42:13;31.42;;;20.98;;
14584;SDS011;7379;51.506;11.876;2023-03-20T09:44:52;32.72;;;21.85;;
14584;SDS011;7379;51.506;11.876;2023-03-20T09:47:29;27.92;;;19.67;;
14584;SDS011;7379;51.506;11.876;2023-03-20T09:50:05;29.67;;;20.17;;
14584;SDS011;7379;51.506;11.876;2023-03-20T09:52:49;28.52;;;19.95;;
14584;SDS011;7379;51.506;11.876;2023-03-20T09:55:22;28.80;;;19.25;;
14584;SDS011;7379;51.506;11.876;2023-03-20T09:57:56;26.20;;;19.45;;
14584;SDS011;7379;51.506;11.876;2023-03-20T10:00:28;28.17;;;19.80;;
14584;SDS011;7379;51.506;11.876;2023-03-20T10:02:59;27.02;;;19.52;;
14584;SDS011;7379;51.506;11.876;2023-03-20T10:05:28;26.33;;;18.60;;
14584;SDS011;7379;51.506;11.876;2023-03-20T10:07:58;27.38;;;18.25;;
14584;SDS011;7379;51.506;11.876;2023-03-20T10:10:30;28.48;;;19.30;;
14584;SDS011;7379;51.506;11.876;2023-03-20T10:13:07;27.02;;;18.95;;
14584;SDS011;7379;51.506;11.876;2023-03-20T10:15:45;25.17;;;18.42;;
14584;SDS011;7379;51.506;11.876;2023-03-20T10:18:17;26.92;;;18.23;;
14584;SDS011;7379;51.506;11.876;2023-03-20T10:20:51;22.88;;;17.75;;
14584;SDS011;7379;51.506;11.876;2023-03-20T10:23:26;29.02;;;18.80;;
14584;SDS011;7379;51.506;11.876;2023-03-20T10:26:01;23.98;;;17.42;;
14584;SDS011;7379;51.506;11.876;2023-03-20T10:28:33;27.45;;;19.30;;
14584;SDS011;7379;51.506;11.876;2023-03-20T10:31:10;25.23;;;17.80;;
14584;SDS011;7379;51.506;11.876;2023-03-20T10:33:51;24.15;;;17.13;;
14584;SDS011;7379;51.506;11.876;2023-03-20T10:36:41;25.88;;;17.10;;
14584;SDS011;7379;51.506;11.876;2023-03-20T10:39:18;23.00;;;16.77;;
14584;SDS011;7379;51.506;11.876;2023-03-20T10:41:53;23.58;;;17.08;;
14584;SDS011;7379;51.506;11.876;2023-03-20T10:44:25;26.23;;;17.65;;
14584;SDS011;7379;51.506;11.876;2023-03-20T10:46:56;24.55;;;17.00;;
14584;SDS011;7379;51.506;11.876;2023-03-20T10:49:28;25.52;;;17.13;;
14584;SDS011;7379;51.506;11.876;2023-03-20T10:52:02;23.38;;;16.95;;
14584;SDS011;7379;51.506;11.876;2023-03-20T10:54:35;27.75;;;17.40;;
14584;SDS011;7379;51.506;11.876;2023-03-20T10:57:05;24.55;;;16.75;;
14584;SDS011;7379;51.506;11.876;2023-03-20T10:59:39;24.90;;;17.35;;
14584;SDS011;7379;51.506;11.876;2023-03-20T11:02:09;22.80;;;15.95;;
14584;SDS011;7379;51.506;11.876;2023-03-20T11:04:37;23.15;;;16.77;;
14584;SDS011;7379;51.506;11.876;2023-03-20T11:07:06;21.42;;;16.20;;
14584;SDS011;7379;51.506;11.876;2023-03-20T11:09:43;22.58;;;16.27;;
14584;SDS011;7379;51.506;11.876;2023-03-20T11:12:13;22.63;;;16.00;;
14584;SDS011;7379;51.506;11.876;2023-03-20T11:14:43;21.33;;;15.15;;
14584;SDS011;7379;51.506;11.876;2023-03-20T11:17:10;21.90;;;15.85;;
14584;SDS011;7379;51.506;11.876;2023-03-20T11:19:38;21.50;;;16.08;;
14584;SDS011;7379;51.506;11.876;2023-03-20T11:22:07;21.40;;;15.57;;
14584;SDS011;7379;51.506;11.876;2023-03-20T11:24:49;22.73;;;16.05;;
14584;SDS011;7379;51.506;11.876;2023-03-20T11:27:18;21.88;;;15.95;;
14584;SDS011;7379;51.506;11.876;2023-03-20T11:29:50;22.13;;;15.73;;
14584;SDS011;7379;51.506;11.876;2023-03-20T11:32:21;22.02;;;15.73;;
14584;SDS011;7379;51.506;11.876;2023-03-20T11:34:53;22.77;;;15.18;;
14584;SDS011;7379;51.506;11.876;2023-03-20T11:37:22;22.20;;;15.55;;
14584;SDS011;7379;51.506;11.876;2023-03-20T11:39:57;20.45;;;15.18;;
14584;SDS011;7379;51.506;11.876;2023-03-20T11:42:26;23.45;;;15.77;;
14584;SDS011;7379;51.506;11.876;2023-03-20T11:44:58;23.17;;;15.48;;
14584;SDS011;7379;51.506;11.876;2023-03-20T11:47:27;19.20;;;14.57;;
14584;SDS011;7379;51.506;11.876;2023-03-20T11:49:58;23.02;;;16.02;;
14584;SDS011;7379;51.506;11.876;2023-03-20T11:52:26;20.23;;;15.15;;
14584;SDS011;7379;51.506;11.876;2023-03-20T11:54:58;21.23;;;15.57;;
14584;SDS011;7379;51.506;11.876;2023-03-20T11:57:29;22.15;;;15.80;;
14584;SDS011;7379;51.506;11.876;2023-03-20T12:00:00;21.77;;;14.98;;
14584;SDS011;7379;51.506;11.876;2023-03-20T12:02:29;20.80;;;14.88;;
14584;SDS011;7379;51.506;11.876;2023-03-20T12:04:58;23.33;;;15.73;;
14584;SDS011;7379;51.506;11.876;2023-03-20T12:07:26;23.88;;;16.00;;
14584;SDS011;7379;51.506;11.876;2023-03-20T12:10:00;22.30;;;16.02;;
14584;SDS011;7379;51.506;11.876;2023-03-20T12:12:33;21.02;;;15.13;;
14584;SDS011;7379;51.506;11.876;2023-03-20T12:15:07;22.40;;;16.15;;
14584;SDS011;7379;51.506;11.876;2023-03-20T12:17:43;24.58;;;17.10;;
14584;SDS011;7379;51.506;11.876;2023-03-20T12:20:19;25.98;;;16.73;;
14584;SDS011;7379;51.506;11.876;2023-03-20T12:22:52;23.15;;;16.65;;
14584;SDS011;7379;51.506;11.876;2023-03-20T12:25:26;22.92;;;15.88;;
14584;SDS011;7379;51.506;11.876;2023-03-20T12:28:01;24.48;;;16.88;;
14584;SDS011;7379;51.506;11.876;2023-03-20T12:30:31;22.23;;;15.75;;
14584;SDS011;7379;51.506;11.876;2023-03-20T12:33:10;20.23;;;14.88;;
14584;SDS011;7379;51.506;11.876;2023-03-20T12:35:43;20.98;;;14.63;;
14584;SDS011;7379;51.506;11.876;2023-03-20T12:38:16;22.50;;;14.73;;
14584;SDS011;7379;51.506;11.876;2023-03-20T12:40:50;20.33;;;13.93;;
14584;SDS011;7379;51.506;11.876;2023-03-20T12:43:21;20.20;;;13.98;;
14584;SDS011;7379;51.506;11.876;2023-03-20T12:45:53;19.45;;;14.27;;
14584;SDS011;7379;51.506;11.876;2023-03-20T12:48:37;20.60;;;14.40;;
14584;SDS011;7379;51.506;11.876;2023-03-20T12:51:15;20.45;;;14.60;;
14584;SDS011;7379;51.506;11.876;2023-03-20T12:53:52;19.75;;;13.77;;
14584;SDS011;7379;51.506;11.876;2023-03-20T12:56:29;21.75;;;14.70;;
14584;SDS011;7379;51.506;11.876;2023-03-20T12:59:10;19.40;;;13.35;;
14584;SDS011;7379;51.506;11.876;2023-03-20T13:01:44;20.73;;;14.18;;
14584;SDS011;7379;51.506;11.876;2023-03-20T13:04:33;21.58;;;14.23;;
14584;SDS011;7379;51.506;11.876;2023-03-20T13:07:17;19.40;;;14.18;;
14584;SDS011;7379;51.506;11.876;2023-03-20T13:09:51;23.50;;;14.73;;
14584;SDS011;7379;51.506;11.876;2023-03-20T13:12:34;19.38;;;14.02;;
14584;SDS011;7379;51.506;11.876;2023-03-20T13:15:14;19.08;;;13.27;;
14584;SDS011;7379;51.506;11.876;2023-03-20T13:17:51;19.15;;;13.43;;
14584;SDS011;7379;51.506;11.876;2023-03-20T13:20:27;17.60;;;13.55;;
14584;SDS011;7379;51.506;11.876;2023-03-20T13:22:59;20.75;;;14.40;;
14584;SDS011;7379;51.506;11.876;2023-03-20T13:25:40;20.00;;;13.85;;
14584;SDS011;7379;51.506;11.876;2023-03-20T13:28:22;19.85;;;13.88;;
14584;SDS011;7379;51.506;11.876;2023-03-20T13:30:56;19.98;;;14.55;;
14584;SDS011;7379;51.506;11.876;2023-03-20T13:33:32;22.05;;;14.77;;
14584;SDS011;7379;51.506;11.876;2023-03-20T13:36:09;22.40;;;14.60;;
14584;SDS011;7379;51.506;11.876;2023-03-20T13:38:44;19.80;;;14.18;;
14584;SDS011;7379;51.506;11.876;2023-03-20T13:41:13;20.92;;;14.23;;
14584;SDS011;7379;51.506;11.876;2023-03-20T13:43:44;20.92;;;14.40;;
14584;SDS011;7379;51.506;11.876;2023-03-20T13:46:19;21.58;;;15.57;;
14584;SDS011;7379;51.506;11.876;2023-03-20T13:48:49;21.08;;;14.55;;
14584;SDS011;7379;51.506;11.876;2023-03-20T13:51:20;22.67;;;15.20;;
14584;SDS011;7379;51.506;11.876;2023-03-20T13:53:56;23.10;;;15.40;;
14584;SDS011;7379;51.506;11.876;2023-03-20T13:56:32;21.92;;;15.20;;
14584;SDS011;7379;51.506;11.876;2023-03-20T13:59:13;20.42;;;14.18;;
14584;SDS011;7379;51.506;11.876;2023-03-20T14:02:11;20.33;;;14.20;;
14584;SDS011;7379;51.506;11.876;2023-03-20T14:04:50;21.90;;;15.13;;
14584;SDS011;7379;51.506;11.876;2023-03-20T14:07:28;21.42;;;15.27;;
14584;SDS011;7379;51.506;11.876;2023-03-20T14:09:57;22.27;;;15.68;;
14584;SDS011;7379;51.506;11.876;2023-03-20T14:13:04;22.27;;;15.20;;
14584;SDS011;7379;51.506;11.876;2023-03-20T14:15:37;22.83;;;15.20;;
14584;SDS011;7379;51.506;11.876;2023-03-20T14:18:19;19.42;;;14.02;;
14584;SDS011;7379;51.506;11.876;2023-03-20T14:20:52;21.02;;;14.77;;
14584;SDS011;7379;51.506;11.876;2023-03-20T14:23:27;20.80;;;14.77;;
14584;SDS011;7379;51.506;11.876;2023-03-20T14:26:00;20.20;;;14.18;;
14584;SDS011;7379;51.506;11.876;2023-03-20T14:28:40;20.13;;;14.30;;
14584;SDS011;7379;51.506;11.876;2023-03-20T14:31:17;25.30;;;15.85;;
14584;SDS011;7379;51.506;11.876;2023-03-20T14:33:52;18.27;;;13.48;;
14584;SDS011;7379;51.506;11.876;2023-03-20T14:36:40;19.05;;;13.50;;
14584;SDS011;7379;51.506;11.876;2023-03-20T14:39:12;21.75;;;14.68;;
14584;SDS011;7379;51.506;11.876;2023-03-20T14:41:52;22.50;;;15.40;;
14584;SDS011;7379;51.506;11.876;2023-03-20T14:44:30;21.60;;;15.20;;
14584;SDS011;7379;51.506;11.876;2023-03-20T14:47:19;21.25;;;15.27;;
14584;SDS011;7379;51.506;11.876;2023-03-20T14:49:53;22.73;;;15.45;;
14584;SDS011;7379;51.506;11.876;2023-03-20T14:52:34;23.65;;;16.00;;
14584;SDS011;7379;51.506;11.876;2023-03-20T14:55:14;21.98;;;14.80;;
14584;SDS011;7379;51.506;11.876;2023-03-20T14:57:55;21.27;;;15.02;;
14584;SDS011;7379;51.506;11.876;2023-03-20T15:00:23;20.70;;;14.75;;